createdAt,value
2019-06-20T00:00:15.270Z,20.75
2019-06-20T00:02:43.710Z,20.56
2019-06-20T00:05:12.417Z,20.76
2019-06-20T00:07:40.877Z,20.77
2019-06-20T00:10:09.467Z,21.30
2019-06-20T00:12:37.997Z,21.53
2019-06-20T00:15:08.053Z,21.44
2019-06-20T00:17:36.627Z,21.62
2019-06-20T00:20:05.724Z,22.21
2019-06-20T00:22:34.145Z,22.12
2019-06-20T00:25:03.092Z,21.21
2019-06-20T00:27:31.746Z,22.09
2019-06-20T00:30:00.168Z,21.20
2019-06-20T00:32:28.681Z,21.66
2019-06-20T00:34:57.220Z,22.16
2019-06-20T00:37:25.775Z,22.21
2019-06-20T00:39:54.341Z,22.41
2019-06-20T00:42:22.775Z,22.26
2019-06-20T00:44:51.316Z,22.11
2019-06-20T00:47:19.835Z,22.31
2019-06-20T00:49:48.355Z,22.19
2019-06-20T00:52:17.095Z,22.18
2019-06-20T00:54:45.569Z,21.69
2019-06-20T00:57:14.086Z,20.51
2019-06-20T00:59:42.696Z,20.51
2019-06-20T01:02:12.315Z,20.10
2019-06-20T01:04:40.849Z,20.31
2019-06-20T01:07:09.565Z,20.50
2019-06-20T01:09:38.012Z,19.98
2019-06-20T01:12:06.469Z,19.80
2019-06-20T01:14:34.923Z,19.86
2019-06-20T01:17:03.607Z,19.75
2019-06-20T01:19:32.040Z,19.88
2019-06-20T01:22:00.485Z,19.95
2019-06-20T01:24:29.058Z,19.95
2019-06-20T01:26:57.523Z,20.41
2019-06-20T01:29:25.974Z,20.04
2019-06-20T01:31:54.511Z,19.78
2019-06-20T01:34:23.041Z,19.76
2019-06-20T01:36:51.609Z,19.79
2019-06-20T01:39:20.187Z,19.60
2019-06-20T01:41:48.805Z,19.88
2019-06-20T01:44:17.228Z,19.94
2019-06-20T01:46:45.660Z,19.90
2019-06-20T01:49:14.105Z,19.79
2019-06-20T01:51:42.554Z,19.96
2019-06-20T01:54:11.055Z,19.79
2019-06-20T01:56:39.526Z,19.52
2019-06-20T01:59:08.116Z,20.11
2019-06-20T02:01:36.702Z,20.45
2019-06-20T02:04:05.583Z,21.30
2019-06-20T02:06:34.054Z,21.21
2019-06-20T02:09:02.472Z,21.43
2019-06-20T02:11:30.957Z,20.72
2019-06-20T02:14:07.384Z,20.17
2019-06-20T02:16:29.513Z,19.66
2019-06-20T02:18:58.025Z,20.88
2019-06-20T02:21:26.749Z,19.87
2019-06-20T02:23:55.271Z,20.40
2019-06-20T02:26:23.962Z,20.94
2019-06-20T02:28:52.389Z,20.95
2019-06-20T02:31:20.906Z,20.58
2019-06-20T02:33:49.333Z,20.40
2019-06-20T02:36:17.809Z,19.89
2019-06-20T02:38:46.239Z,19.62
2019-06-20T02:41:14.925Z,20.06
2019-06-20T02:43:43.397Z,20.05
2019-06-20T02:46:12.012Z,19.52
2019-06-20T02:48:40.445Z,19.27
2019-06-20T02:51:08.939Z,19.39
2019-06-20T02:53:37.631Z,19.29
2019-06-20T02:56:06.209Z,19.10
2019-06-20T02:58:34.675Z,20.29
2019-06-20T03:01:03.224Z,20.31
2019-06-20T03:03:31.645Z,19.39
2019-06-20T03:06:00.065Z,20.64
2019-06-20T03:08:29.432Z,20.23
2019-06-20T03:10:59.179Z,19.95
2019-06-20T03:13:27.762Z,20.41
2019-06-20T03:15:56.314Z,21.17
2019-06-20T03:18:24.741Z,20.69
2019-06-20T03:20:53.210Z,20.71
2019-06-20T03:23:21.685Z,19.70
2019-06-20T03:25:50.209Z,19.25
2019-06-20T03:28:18.777Z,19.46
2019-06-20T03:30:47.281Z,20.43
2019-06-20T03:33:15.868Z,20.28
2019-06-20T03:35:44.481Z,19.83
2019-06-20T03:38:13.197Z,19.59
2019-06-20T03:40:41.605Z,19.56
2019-06-20T03:43:10.088Z,19.43
2019-06-20T03:45:38.618Z,19.54
2019-06-20T03:48:07.122Z,19.45
2019-06-20T03:50:35.734Z,19.56
2019-06-20T03:53:04.139Z,19.95
2019-06-20T03:55:33.222Z,19.41
2019-06-20T03:58:02.241Z,19.17
2019-06-20T04:00:33.696Z,19.27
2019-06-20T04:03:02.582Z,19.75
2019-06-20T04:05:31.257Z,19.89
2019-06-20T04:07:59.707Z,19.71
2019-06-20T04:10:28.292Z,19.74
2019-06-20T04:12:56.797Z,19.28
2019-06-20T04:15:25.464Z,19.50
2019-06-20T04:17:53.900Z,19.17
2019-06-20T04:20:22.325Z,19.65
2019-06-20T04:22:52.282Z,19.44
2019-06-20T04:25:20.763Z,19.47
2019-06-20T04:27:49.221Z,19.81
2019-06-20T04:30:17.782Z,19.88
2019-06-20T04:32:46.222Z,19.56
2019-06-20T04:35:14.820Z,19.77
2019-06-20T04:37:43.512Z,19.54
2019-06-20T04:40:12.368Z,19.49
2019-06-20T04:42:40.787Z,19.98
2019-06-20T04:45:13.911Z,19.81
2019-06-20T04:47:43.909Z,20.16
2019-06-20T04:50:12.315Z,20.39
2019-06-20T04:52:40.757Z,20.35
2019-06-20T04:55:09.422Z,20.38
2019-06-20T04:57:37.911Z,21.07
2019-06-20T05:00:08.165Z,21.18
2019-06-20T05:02:36.669Z,21.27
2019-06-20T05:05:08.677Z,21.21
2019-06-20T05:07:37.082Z,21.26
2019-06-20T05:10:08.653Z,20.90
2019-06-20T05:12:37.068Z,21.35
2019-06-20T05:15:06.791Z,21.52
2019-06-20T05:17:35.194Z,21.51
2019-06-20T05:20:05.249Z,21.42
2019-06-20T05:22:33.779Z,21.56
2019-06-20T05:25:02.215Z,21.61
2019-06-20T05:27:30.670Z,21.23
2019-06-20T05:29:59.228Z,20.89
2019-06-20T05:32:27.642Z,21.12
2019-06-20T05:34:56.118Z,21.53
2019-06-20T05:37:24.556Z,21.22
2019-06-20T05:39:52.973Z,21.00
2019-06-20T05:42:21.416Z,20.94
2019-06-20T05:44:49.888Z,21.26
2019-06-20T05:47:18.522Z,20.99
2019-06-20T05:49:47.048Z,21.03
2019-06-20T05:52:15.642Z,21.57
2019-06-20T05:54:44.097Z,21.26
2019-06-20T05:57:12.520Z,20.90
2019-06-20T05:59:40.956Z,21.55
2019-06-20T06:02:09.367Z,21.11
2019-06-20T06:04:37.837Z,21.08
2019-06-20T06:07:06.344Z,21.48
2019-06-20T06:09:34.770Z,21.50
2019-06-20T06:12:03.206Z,21.28
2019-06-20T06:14:31.696Z,21.74
2019-06-20T06:17:00.058Z,21.62
2019-06-20T06:19:28.474Z,21.97
2019-06-20T06:21:56.915Z,21.78
2019-06-20T06:24:25.368Z,21.89
2019-06-20T06:26:53.826Z,21.93
2019-06-20T06:29:22.361Z,21.78
2019-06-20T06:31:50.831Z,21.82
2019-06-20T06:34:22.142Z,21.50
2019-06-20T06:36:50.762Z,21.73
2019-06-20T06:39:19.344Z,21.30
2019-06-20T06:41:47.764Z,21.66
2019-06-20T06:44:16.231Z,21.38
2019-06-20T06:46:53.158Z,21.72
2019-06-20T06:49:14.857Z,21.19
2019-06-20T06:51:43.432Z,21.48
2019-06-20T06:54:11.841Z,21.19
2019-06-20T06:56:40.368Z,21.73
2019-06-20T06:59:08.789Z,21.73
2019-06-20T07:01:37.244Z,21.66
2019-06-20T07:04:05.752Z,21.79
2019-06-20T07:06:34.173Z,21.82
2019-06-20T07:09:03.034Z,21.72
2019-06-20T07:11:31.460Z,21.48
2019-06-20T07:14:05.465Z,21.74
2019-06-20T07:16:34.030Z,21.82
2019-06-20T07:19:02.497Z,21.85
2019-06-20T07:21:30.938Z,21.66
2019-06-20T07:23:59.387Z,21.82
2019-06-20T07:26:27.821Z,22.02
2019-06-20T07:28:56.300Z,22.03
2019-06-20T07:31:24.921Z,22.11
2019-06-20T07:33:53.434Z,22.31
2019-06-20T07:36:22.142Z,22.28
2019-06-20T07:38:50.783Z,22.31
2019-06-20T07:41:19.224Z,22.60
2019-06-20T07:43:47.634Z,22.38
2019-06-20T07:46:16.086Z,22.40
2019-06-20T07:48:44.563Z,22.20
2019-06-20T07:51:13.285Z,22.38
2019-06-20T07:53:41.791Z,22.49
2019-06-20T07:56:10.351Z,22.49
2019-06-20T07:58:38.857Z,22.60
2019-06-20T08:01:07.419Z,22.44
2019-06-20T08:03:35.972Z,22.60
2019-06-20T08:06:04.646Z,22.64
2019-06-20T08:08:33.052Z,22.63
2019-06-20T08:11:01.492Z,22.78
2019-06-20T08:13:29.942Z,22.89
2019-06-20T08:15:58.440Z,23.00
2019-06-20T08:18:26.903Z,23.11
2019-06-20T08:20:58.561Z,23.07
2019-06-20T08:23:27.118Z,23.30
2019-06-20T08:25:57.061Z,23.30
2019-06-20T08:28:25.834Z,23.32
2019-06-20T08:30:54.266Z,23.55
2019-06-20T08:33:22.759Z,23.48
2019-06-20T08:35:51.269Z,23.33
2019-06-20T08:38:19.795Z,23.45
2019-06-20T08:40:48.293Z,23.62
2019-06-20T08:43:16.713Z,23.20
2019-06-20T08:45:45.465Z,23.20
2019-06-20T08:48:13.922Z,23.37
2019-06-20T08:50:42.865Z,23.27
2019-06-20T08:53:11.309Z,23.32
2019-06-20T08:55:39.811Z,23.36
2019-06-20T08:58:08.364Z,23.69
2019-06-20T09:00:38.011Z,23.99
2019-06-20T09:03:06.782Z,24.19
2019-06-20T09:05:35.590Z,24.08
2019-06-20T09:08:05.718Z,24.10
2019-06-20T09:10:37.217Z,24.28
2019-06-20T09:13:06.197Z,24.50
2019-06-20T09:15:34.896Z,24.68
2019-06-20T09:18:03.279Z,24.85
2019-06-20T09:20:31.964Z,24.33
2019-06-20T09:23:01.091Z,23.68
2019-06-20T09:25:29.744Z,23.80
2019-06-20T09:28:00.405Z,23.75
2019-06-20T09:30:29.278Z,23.81
2019-06-20T09:32:57.913Z,23.74
2019-06-20T09:35:26.545Z,23.59
2019-06-20T09:37:55.237Z,23.61
2019-06-20T09:40:24.046Z,23.64
2019-06-20T09:42:52.953Z,23.53
2019-06-20T09:45:21.926Z,23.53
2019-06-20T09:47:52.052Z,23.63
2019-06-20T09:50:21.433Z,23.55
2019-06-20T09:52:51.371Z,23.53
2019-06-20T09:55:20.060Z,23.49
2019-06-20T09:57:49.105Z,23.61
2019-06-20T10:00:21.515Z,23.73
2019-06-20T10:02:50.655Z,23.57
2019-06-20T10:05:20.543Z,23.67
2019-06-20T10:07:50.315Z,23.73
2019-06-20T10:10:19.465Z,23.54
2019-06-20T10:12:48.057Z,23.47
2019-06-20T10:15:26.796Z,23.39
2019-06-20T10:17:55.363Z,23.29
2019-06-20T10:20:24.423Z,23.18
2019-06-20T10:22:53.396Z,23.17
2019-06-20T10:25:22.346Z,23.20
2019-06-20T10:27:51.426Z,23.16
2019-06-20T10:30:21.954Z,23.54
2019-06-20T10:32:51.057Z,23.56
2019-06-20T10:35:20.252Z,23.24
2019-06-20T10:37:52.766Z,22.20
2019-06-20T10:40:21.663Z,22.04
2019-06-20T10:43:04.488Z,21.77
2019-06-20T10:45:40.284Z,22.29
2019-06-20T10:48:22.499Z,23.36
2019-06-20T10:51:03.494Z,23.06
2019-06-20T10:53:36.159Z,22.88
2019-06-20T10:56:04.895Z,22.94
2019-06-20T10:58:51.774Z,22.78
2019-06-20T11:01:20.181Z,22.78
2019-06-20T11:03:49.874Z,23.09
2019-06-20T11:06:18.481Z,23.33
2019-06-20T11:08:47.772Z,23.42
2019-06-20T11:11:16.227Z,24.05
2019-06-20T11:13:44.623Z,23.90
2019-06-20T11:16:13.179Z,23.74
2019-06-20T11:18:41.660Z,23.67
2019-06-20T11:21:10.177Z,24.35
2019-06-20T11:23:39.395Z,24.04
2019-06-20T11:26:08.202Z,23.70
2019-06-20T11:28:38.231Z,23.44
2019-06-20T11:31:06.806Z,23.12
2019-06-20T11:33:36.570Z,22.81
2019-06-20T11:36:05.539Z,22.81
2019-06-20T11:38:33.964Z,22.99
2019-06-20T11:41:02.448Z,23.78
2019-06-20T11:43:30.860Z,23.92
2019-06-20T11:45:59.263Z,23.78
2019-06-20T11:48:27.713Z,23.76
2019-06-20T11:50:56.153Z,23.65
2019-06-20T11:53:24.579Z,23.26
2019-06-20T11:55:53.035Z,23.26
2019-06-20T11:58:23.511Z,23.06
2019-06-20T12:01:03.197Z,22.95
2019-06-20T12:03:21.852Z,23.03
2019-06-20T12:05:50.317Z,23.80
2019-06-20T12:08:18.734Z,24.32
2019-06-20T12:10:47.375Z,24.70
2019-06-20T12:13:15.798Z,24.55
2019-06-20T12:15:44.452Z,24.86
2019-06-20T12:18:12.957Z,25.13
2019-06-20T12:20:42.778Z,24.93
2019-06-20T12:23:11.442Z,25.27
2019-06-20T12:25:41.033Z,25.19
2019-06-20T12:28:10.223Z,25.40
2019-06-20T12:30:40.185Z,25.53
2019-06-20T12:33:09.995Z,25.56
2019-06-20T12:35:39.517Z,25.62
2019-06-20T12:38:08.717Z,25.62
2019-06-20T12:40:39.119Z,25.61
2019-06-20T12:43:07.306Z,25.63
2019-06-20T12:45:35.717Z,25.74
2019-06-20T12:48:04.247Z,25.76
2019-06-20T12:50:32.670Z,25.92
2019-06-20T12:53:01.081Z,26.02
2019-06-20T12:55:29.746Z,26.06
2019-06-20T12:57:58.183Z,25.55
2019-06-20T13:00:28.735Z,25.38
2019-06-20T13:02:57.365Z,25.34
2019-06-20T13:05:26.401Z,25.19
2019-06-20T13:07:54.895Z,25.12
2019-06-20T13:10:23.833Z,25.04
2019-06-20T13:12:52.433Z,24.99
2019-06-20T13:15:21.283Z,25.05
2019-06-20T13:17:49.917Z,24.99
2019-06-20T13:20:18.837Z,24.80
2019-06-20T13:22:49.367Z,24.70
2019-06-20T13:25:17.610Z,24.58
2019-06-20T13:27:46.103Z,24.51
2019-06-20T13:30:15.915Z,24.46
2019-06-20T13:32:45.431Z,24.44
2019-06-20T13:35:14.919Z,24.36
2019-06-20T13:37:43.909Z,24.61
2019-06-20T13:40:14.029Z,24.72
2019-06-20T13:42:44.073Z,24.78
2019-06-20T13:45:18.473Z,24.78
2019-06-20T13:47:47.828Z,24.71
2019-06-20T13:50:16.706Z,24.66
2019-06-20T13:52:46.822Z,24.64
2019-06-20T13:55:15.567Z,24.58
2019-06-20T13:57:45.277Z,24.52
2019-06-20T14:00:15.403Z,24.50
2019-06-20T14:02:45.395Z,24.50
2019-06-20T14:05:15.047Z,24.43
2019-06-20T14:07:50.540Z,24.47
2019-06-20T14:10:14.153Z,24.33
2019-06-20T14:12:43.141Z,23.83
2019-06-20T14:15:13.440Z,23.80
2019-06-20T14:17:43.187Z,23.70
2019-06-20T14:20:13.539Z,23.18
2019-06-20T14:22:42.914Z,23.18
2019-06-20T14:25:11.595Z,23.34
2019-06-20T14:27:40.014Z,23.32
2019-06-20T14:30:09.456Z,23.46
2019-06-20T14:32:37.895Z,23.46
2019-06-20T14:35:07.392Z,23.41
2019-06-20T14:37:35.886Z,23.36
2019-06-20T14:40:06.854Z,23.26
2019-06-20T14:42:35.266Z,23.26
2019-06-20T14:45:05.864Z,23.28
2019-06-20T14:47:34.572Z,23.27
2019-06-20T14:50:03.038Z,23.26
2019-06-20T14:52:31.468Z,23.27
2019-06-20T14:54:59.893Z,23.52
2019-06-20T14:57:28.308Z,23.47
2019-06-20T14:59:56.738Z,23.50
2019-06-20T15:02:37.628Z,23.58
2019-06-20T15:04:55.288Z,23.73
2019-06-20T15:07:23.743Z,23.60
2019-06-20T15:09:53.236Z,23.73
2019-06-20T15:12:21.807Z,23.66
2019-06-20T15:14:51.436Z,23.74
2019-06-20T15:17:20.028Z,23.84
2019-06-20T15:19:49.437Z,23.99
2019-06-20T15:22:17.856Z,24.10
2019-06-20T15:24:48.505Z,24.19
2019-06-20T15:27:16.480Z,24.20
2019-06-20T15:29:47.014Z,24.09
2019-06-20T15:32:15.733Z,24.00
2019-06-20T15:34:47.532Z,24.03
2019-06-20T15:37:15.528Z,24.12
2019-06-20T15:39:44.532Z,24.13
2019-06-20T15:42:13.627Z,24.14
2019-06-20T15:44:42.288Z,24.20
2019-06-20T15:47:12.395Z,24.28
2019-06-20T15:49:43.518Z,24.28
2019-06-20T15:52:13.614Z,24.30
2019-06-20T15:54:43.582Z,24.23
2019-06-20T15:57:13.647Z,24.22
2019-06-20T15:59:43.423Z,24.20
2019-06-20T16:02:13.156Z,24.20
2019-06-20T16:04:43.301Z,24.26
2019-06-20T16:07:13.134Z,24.28
2019-06-20T16:09:43.385Z,24.28
2019-06-20T16:12:13.384Z,24.26
2019-06-20T16:14:43.142Z,24.23
2019-06-20T16:17:12.981Z,24.20
2019-06-20T16:19:42.876Z,24.22
2019-06-20T16:22:12.830Z,24.23
2019-06-20T16:24:42.840Z,24.21
2019-06-20T16:27:12.740Z,24.16
2019-06-20T16:29:43.029Z,24.13
2019-06-20T16:32:12.884Z,24.13
2019-06-20T16:34:41.338Z,24.17
2019-06-20T16:37:10.705Z,24.18
2019-06-20T16:39:39.218Z,24.15
2019-06-20T16:42:07.647Z,24.11
2019-06-20T16:44:36.103Z,24.12
2019-06-20T16:47:04.566Z,24.19
2019-06-20T16:49:32.978Z,24.24
2019-06-20T16:52:01.570Z,24.28
2019-06-20T16:54:30.120Z,24.29
2019-06-20T16:56:58.534Z,24.29
2019-06-20T16:59:27.076Z,24.23
2019-06-20T17:01:55.519Z,24.22
2019-06-20T17:04:24.031Z,24.22
2019-06-20T17:06:52.576Z,24.24
2019-06-20T17:09:21.020Z,24.23
2019-06-20T17:11:49.468Z,24.23
2019-06-20T17:14:17.909Z,24.23
2019-06-20T17:16:46.394Z,24.22
2019-06-20T17:19:15.747Z,24.22
2019-06-20T17:21:47.309Z,24.23
2019-06-20T17:24:15.764Z,24.21
2019-06-20T17:26:44.275Z,24.22
2019-06-20T17:29:12.747Z,24.21
2019-06-20T17:31:41.186Z,24.19
2019-06-20T17:34:09.632Z,24.15
2019-06-20T17:36:39.690Z,24.08
2019-06-20T17:39:08.565Z,24.04
2019-06-20T17:41:54.188Z,24.00
2019-06-20T17:44:09.535Z,23.96
2019-06-20T17:46:39.460Z,23.91
2019-06-20T17:49:07.921Z,23.84
2019-06-20T17:51:36.403Z,23.85
2019-06-20T17:54:04.900Z,23.84
2019-06-20T17:56:33.390Z,23.85
2019-06-20T17:59:11.658Z,23.84
2019-06-20T18:01:40.115Z,23.85
2019-06-20T18:04:13.591Z,23.81
2019-06-20T18:06:38.875Z,23.77
2019-06-20T18:09:07.720Z,23.76
2019-06-20T18:11:36.172Z,23.77
2019-06-20T18:14:05.093Z,23.78
2019-06-20T18:16:33.570Z,23.81
2019-06-20T18:19:01.994Z,23.76
2019-06-20T18:21:30.494Z,23.75
2019-06-20T18:23:58.985Z,23.70
2019-06-20T18:26:27.435Z,23.71
2019-06-20T18:28:55.928Z,23.68
2019-06-20T18:31:24.375Z,23.67
2019-06-20T18:33:52.855Z,23.60
2019-06-20T18:36:21.222Z,23.53
2019-06-20T18:38:49.735Z,23.43
2019-06-20T18:41:18.192Z,23.55
2019-06-20T18:43:46.600Z,23.58
2019-06-20T18:46:15.061Z,23.50
2019-06-20T18:48:43.507Z,23.42
2019-06-20T18:51:11.926Z,23.42
2019-06-20T18:53:40.477Z,23.37
2019-06-20T18:56:09.012Z,23.36
2019-06-20T18:58:37.450Z,23.21
2019-06-20T19:01:06.080Z,23.21
2019-06-20T19:03:37.723Z,23.16
2019-06-20T19:06:06.174Z,23.16
2019-06-20T19:08:34.616Z,23.12
2019-06-20T19:11:04.306Z,23.14
2019-06-20T19:13:32.958Z,23.10
2019-06-20T19:16:01.413Z,23.07
2019-06-20T19:18:29.799Z,23.06
2019-06-20T19:20:58.235Z,22.90
2019-06-20T19:23:26.648Z,22.84
2019-06-20T19:25:55.074Z,22.88
2019-06-20T19:28:23.522Z,22.85
2019-06-20T19:30:52.584Z,22.85
2019-06-20T19:33:21.114Z,22.83
2019-06-20T19:35:49.526Z,22.79
2019-06-20T19:38:17.957Z,22.76
2019-06-20T19:40:48.610Z,22.74
2019-06-20T19:43:17.242Z,22.72
2019-06-20T19:45:45.898Z,22.66
2019-06-20T19:48:15.028Z,22.59
2019-06-20T19:50:43.718Z,22.61
2019-06-20T19:53:13.163Z,22.55
2019-06-20T19:55:43.376Z,22.47
2019-06-20T19:58:12.053Z,22.40
2019-06-20T20:00:40.487Z,22.37
2019-06-20T20:03:09.012Z,22.34
2019-06-20T20:05:37.590Z,22.31
2019-06-20T20:08:06.365Z,22.24
2019-06-20T20:10:43.025Z,22.22
2019-06-20T20:13:14.495Z,22.18
2019-06-20T20:15:41.945Z,22.16
2019-06-20T20:18:13.793Z,22.13
2019-06-20T20:20:43.066Z,22.08
2019-06-20T20:23:11.625Z,22.04
2019-06-20T20:25:40.213Z,22.07
2019-06-20T20:28:10.203Z,21.99
2019-06-20T20:30:38.612Z,21.92
2019-06-20T20:33:07.074Z,21.89
2019-06-20T20:35:36.124Z,21.88
2019-06-20T20:38:04.775Z,21.82
2019-06-20T20:40:33.253Z,21.76
2019-06-20T20:43:01.717Z,21.72
2019-06-20T20:45:30.168Z,21.71
2019-06-20T20:47:58.600Z,21.66
2019-06-20T20:50:27.054Z,21.65
2019-06-20T20:52:55.589Z,21.66
2019-06-20T20:55:24.130Z,21.57
2019-06-20T20:57:52.597Z,21.51
2019-06-20T21:00:45.466Z,21.52
2019-06-20T21:03:14.104Z,21.48
2019-06-20T21:05:51.576Z,21.40
2019-06-20T21:08:12.688Z,21.38
2019-06-20T21:10:41.169Z,21.34
2019-06-20T21:13:09.583Z,21.30
2019-06-20T21:15:38.018Z,21.20
2019-06-20T21:18:06.704Z,21.22
2019-06-20T21:20:35.142Z,21.17
2019-06-20T21:23:03.552Z,21.07
2019-06-20T21:25:32.412Z,21.06
2019-06-20T21:28:01.000Z,21.07
2019-06-20T21:30:29.522Z,21.00
2019-06-20T21:32:57.944Z,20.99
2019-06-20T21:35:26.444Z,20.91
2019-06-20T21:37:55.107Z,20.92
2019-06-20T21:40:23.596Z,20.90
2019-06-20T21:42:52.061Z,20.90
2019-06-20T21:45:20.681Z,20.93
2019-06-20T21:47:49.112Z,20.87
2019-06-20T21:50:17.789Z,20.77
2019-06-20T21:52:46.231Z,20.61
2019-06-20T21:55:15.168Z,20.68
2019-06-20T21:57:43.618Z,20.64
2019-06-20T22:00:31.980Z,20.65
2019-06-20T22:03:00.589Z,20.58
2019-06-20T22:05:29.005Z,20.61
2019-06-20T22:07:57.442Z,20.74
2019-06-20T22:10:25.941Z,20.72
2019-06-20T22:12:54.462Z,20.74
2019-06-20T22:15:22.890Z,20.66
2019-06-20T22:17:51.407Z,20.63
2019-06-20T22:20:21.344Z,20.59
2019-06-20T22:22:49.808Z,20.50
2019-06-20T22:25:19.961Z,20.45
2019-06-20T22:27:48.500Z,20.44
2019-06-20T22:30:19.334Z,20.41
2019-06-20T22:32:55.039Z,20.38
2019-06-20T22:35:23.550Z,20.38
2019-06-20T22:37:51.955Z,20.38
2019-06-20T22:40:20.444Z,20.28
2019-06-20T22:42:48.873Z,20.30
2019-06-20T22:45:17.646Z,20.33
2019-06-20T22:47:53.065Z,20.37
2019-06-20T22:50:24.944Z,20.37
2019-06-20T22:52:57.239Z,20.44
2019-06-20T22:55:27.590Z,20.40
2019-06-20T22:57:56.939Z,20.25
2019-06-20T23:00:25.825Z,20.18
2019-06-20T23:02:54.237Z,20.20
2019-06-20T23:05:22.808Z,20.20
2019-06-20T23:07:51.201Z,20.32
2019-06-20T23:10:19.751Z,20.19
2019-06-20T23:12:53.160Z,20.28
2019-06-20T23:15:25.433Z,20.31
2019-06-20T23:17:53.940Z,20.33
2019-06-20T23:20:22.654Z,20.15
2019-06-20T23:22:51.149Z,20.23
2019-06-20T23:25:19.841Z,20.32
2019-06-20T23:27:48.258Z,20.37
2019-06-20T23:30:18.810Z,20.31
2019-06-20T23:32:48.761Z,20.29
2019-06-20T23:35:17.218Z,20.33
2019-06-20T23:37:45.651Z,20.31
2019-06-20T23:40:14.559Z,20.20
2019-06-20T23:42:43.025Z,20.13
2019-06-20T23:45:16.569Z,20.16
2019-06-20T23:47:44.962Z,20.16
2019-06-20T23:50:20.637Z,20.12
2019-06-20T23:53:06.815Z,20.13
2019-06-20T23:55:35.310Z,20.14
2019-06-20T23:58:03.786Z,20.09
